sensor_id;sensor_type;location;lat;lon;timestamp;noise_LAeq;noise_LA_min;noise_LA_max;noise_LA01;noise_LA95
37163;Laerm;23057;48.554;14.454;2023-05-07T00:01:24;50.03;48.85;55.10;;
37163;Laerm;23057;48.554;14.454;2023-05-07T00:03:55;49.93;48.73;54.76;;
37163;Laerm;23057;48.554;14.454;2023-05-07T00:06:26;49.93;48.78;56.01;;
37163;Laerm;23057;48.554;14.454;2023-05-07T00:08:59;49.94;48.74;55.84;;
37163;Laerm;23057;48.554;14.454;2023-05-07T00:11:32;49.94;48.64;55.57;;
37163;Laerm;23057;48.554;14.454;2023-05-07T00:14:03;49.95;48.83;55.28;;
37163;Laerm;23057;48.554;14.454;2023-05-07T00:16:34;49.91;48.92;55.15;;
37163;Laerm;23057;48.554;14.454;2023-05-07T00:19:05;49.92;48.76;54.86;;
37163;Laerm;23057;48.554;14.454;2023-05-07T00:21:35;49.92;48.69;54.78;;
37163;Laerm;23057;48.554;14.454;2023-05-07T00:24:06;49.92;48.74;55.68;;
37163;Laerm;23057;48.554;14.454;2023-05-07T00:26:37;49.92;48.69;55.53;;
37163;Laerm;23057;48.554;14.454;2023-05-07T00:29:08;49.93;48.78;51.82;;
37163;Laerm;23057;48.554;14.454;2023-05-07T00:31:38;49.94;48.96;51.83;;
37163;Laerm;23057;48.554;14.454;2023-05-07T00:34:09;49.91;48.66;51.04;;
37163;Laerm;23057;48.554;14.454;2023-05-07T00:36:40;49.99;48.74;55.67;;
37163;Laerm;23057;48.554;14.454;2023-05-07T00:39:11;50.35;48.84;55.75;;
37163;Laerm;23057;48.554;14.454;2023-05-07T00:41:42;50.35;48.83;52.25;;
37163;Laerm;23057;48.554;14.454;2023-05-07T00:44:13;50.94;49.08;52.35;;
37163;Laerm;23057;48.554;14.454;2023-05-07T00:46:44;50.81;49.34;56.89;;
37163;Laerm;23057;48.554;14.454;2023-05-07T00:49:16;50.47;48.90;61.45;;
37163;Laerm;23057;48.554;14.454;2023-05-07T00:51:47;50.67;48.90;62.73;;
37163;Laerm;23057;48.554;14.454;2023-05-07T00:54:18;49.94;48.76;52.08;;
37163;Laerm;23057;48.554;14.454;2023-05-07T00:56:50;49.94;48.84;52.17;;
37163;Laerm;23057;48.554;14.454;2023-05-07T00:59:22;50.21;49.00;56.52;;
37163;Laerm;23057;48.554;14.454;2023-05-07T01:01:52;50.46;48.98;60.78;;
37163;Laerm;23057;48.554;14.454;2023-05-07T01:04:23;50.26;48.69;59.92;;
37163;Laerm;23057;48.554;14.454;2023-05-07T01:06:56;51.04;48.85;57.47;;
37163;Laerm;23057;48.554;14.454;2023-05-07T01:09:28;51.69;48.77;56.31;;
37163;Laerm;23057;48.554;14.454;2023-05-07T01:11:59;51.64;48.96;55.31;;
37163;Laerm;23057;48.554;14.454;2023-05-07T01:17:10;51.97;49.15;61.40;;
37163;Laerm;23057;48.554;14.454;2023-05-07T01:19:41;50.74;49.06;56.38;;
37163;Laerm;23057;48.554;14.454;2023-05-07T01:22:15;53.61;49.18;56.30;;
37163;Laerm;23057;48.554;14.454;2023-05-07T01:24:47;55.91;52.67;58.35;;
37163;Laerm;23057;48.554;14.454;2023-05-07T01:27:18;56.35;53.64;58.54;;
37163;Laerm;23057;48.554;14.454;2023-05-07T01:29:49;55.20;53.41;56.65;;
37163;Laerm;23057;48.554;14.454;2023-05-07T01:32:47;54.58;49.80;56.45;;
37163;Laerm;23057;48.554;14.454;2023-05-07T01:35:22;51.44;49.34;54.32;;
37163;Laerm;23057;48.554;14.454;2023-05-07T01:37:54;51.15;49.45;54.19;;
37163;Laerm;23057;48.554;14.454;2023-05-07T01:40:26;51.23;49.02;52.87;;
37163;Laerm;23057;48.554;14.454;2023-05-07T01:42:57;51.56;49.30;55.32;;
37163;Laerm;23057;48.554;14.454;2023-05-07T01:45:30;51.89;48.99;54.01;;
37163;Laerm;23057;48.554;14.454;2023-05-07T01:48:02;52.25;48.92;57.54;;
37163;Laerm;23057;48.554;14.454;2023-05-07T01:50:34;56.73;50.59;58.38;;
37163;Laerm;23057;48.554;14.454;2023-05-07T01:53:06;56.46;50.79;58.20;;
37163;Laerm;23057;48.554;14.454;2023-05-07T01:55:37;55.60;51.66;57.79;;
37163;Laerm;23057;48.554;14.454;2023-05-07T01:58:07;55.56;51.25;57.56;;
37163;Laerm;23057;48.554;14.454;2023-05-07T02:00:39;55.89;51.96;57.45;;
37163;Laerm;23057;48.554;14.454;2023-05-07T02:03:11;54.31;48.88;57.19;;
37163;Laerm;23057;48.554;14.454;2023-05-07T02:05:42;56.59;48.94;71.78;;
37163;Laerm;23057;48.554;14.454;2023-05-07T02:08:12;58.06;49.23;73.38;;
37163;Laerm;23057;48.554;14.454;2023-05-07T02:10:43;60.31;49.25;82.89;;
37163;Laerm;23057;48.554;14.454;2023-05-07T02:13:14;52.89;49.07;69.81;;
37163;Laerm;23057;48.554;14.454;2023-05-07T02:15:44;53.87;48.95;67.15;;
37163;Laerm;23057;48.554;14.454;2023-05-07T02:18:19;55.27;52.06;60.56;;
37163;Laerm;23057;48.554;14.454;2023-05-07T02:20:50;55.33;52.17;62.04;;
37163;Laerm;23057;48.554;14.454;2023-05-07T02:23:21;56.08;54.10;60.80;;
37163;Laerm;23057;48.554;14.454;2023-05-07T02:25:51;56.57;52.54;59.84;;
37163;Laerm;23057;48.554;14.454;2023-05-07T02:28:22;56.33;52.16;59.90;;
37163;Laerm;23057;48.554;14.454;2023-05-07T02:30:53;57.07;51.06;62.58;;
37163;Laerm;23057;48.554;14.454;2023-05-07T02:33:23;56.56;51.39;60.20;;
37163;Laerm;23057;48.554;14.454;2023-05-07T02:35:55;55.33;52.17;57.77;;
37163;Laerm;23057;48.554;14.454;2023-05-07T02:38:26;54.77;51.42;58.31;;
37163;Laerm;23057;48.554;14.454;2023-05-07T02:40:56;54.64;52.09;60.57;;
37163;Laerm;23057;48.554;14.454;2023-05-07T02:43:27;53.93;51.90;57.76;;
37163;Laerm;23057;48.554;14.454;2023-05-07T02:46:06;53.31;51.44;57.35;;
37163;Laerm;23057;48.554;14.454;2023-05-07T02:48:37;52.75;50.76;55.92;;
37163;Laerm;23057;48.554;14.454;2023-05-07T02:51:08;52.31;50.61;55.48;;
37163;Laerm;23057;48.554;14.454;2023-05-07T02:53:39;52.65;51.19;69.04;;
37163;Laerm;23057;48.554;14.454;2023-05-07T02:56:10;52.38;49.33;57.14;;
37163;Laerm;23057;48.554;14.454;2023-05-07T02:58:40;54.18;49.58;72.28;;
37163;Laerm;23057;48.554;14.454;2023-05-07T03:01:12;55.00;50.42;70.02;;
37163;Laerm;23057;48.554;14.454;2023-05-07T03:03:44;55.47;49.78;69.05;;
37163;Laerm;23057;48.554;14.454;2023-05-07T03:06:15;56.43;50.42;70.45;;
37163;Laerm;23057;48.554;14.454;2023-05-07T03:08:45;55.84;49.38;78.40;;
37163;Laerm;23057;48.554;14.454;2023-05-07T03:11:16;55.07;48.95;71.03;;
37163;Laerm;23057;48.554;14.454;2023-05-07T03:13:47;52.48;48.83;67.56;;
37163;Laerm;23057;48.554;14.454;2023-05-07T03:16:19;52.92;48.91;67.50;;
37163;Laerm;23057;48.554;14.454;2023-05-07T03:18:50;52.46;49.23;63.81;;
37163;Laerm;23057;48.554;14.454;2023-05-07T03:21:21;52.09;49.27;63.56;;
37163;Laerm;23057;48.554;14.454;2023-05-07T03:23:51;52.45;49.14;63.48;;
37163;Laerm;23057;48.554;14.454;2023-05-07T03:26:22;53.44;49.36;67.77;;
37163;Laerm;23057;48.554;14.454;2023-05-07T03:28:53;53.48;49.45;63.42;;
37163;Laerm;23057;48.554;14.454;2023-05-07T03:31:24;53.50;49.00;64.04;;
37163;Laerm;23057;48.554;14.454;2023-05-07T03:33:57;54.86;49.29;68.29;;
37163;Laerm;23057;48.554;14.454;2023-05-07T03:36:28;53.51;49.57;68.13;;
37163;Laerm;23057;48.554;14.454;2023-05-07T03:38:58;53.81;49.67;68.18;;
37163;Laerm;23057;48.554;14.454;2023-05-07T03:41:29;54.55;49.66;68.35;;
37163;Laerm;23057;48.554;14.454;2023-05-07T03:44:00;54.84;49.15;68.40;;
37163;Laerm;23057;48.554;14.454;2023-05-07T03:46:31;55.60;49.45;68.23;;
37163;Laerm;23057;48.554;14.454;2023-05-07T03:49:03;56.51;49.73;64.12;;
37163;Laerm;23057;48.554;14.454;2023-05-07T03:51:34;56.46;49.60;67.98;;
37163;Laerm;23057;48.554;14.454;2023-05-07T03:54:07;54.40;49.55;67.50;;
37163;Laerm;23057;48.554;14.454;2023-05-07T03:56:38;52.27;49.47;62.56;;
37163;Laerm;23057;48.554;14.454;2023-05-07T03:59:08;53.73;49.66;64.37;;
37163;Laerm;23057;48.554;14.454;2023-05-07T04:01:39;53.87;49.12;66.13;;
37163;Laerm;23057;48.554;14.454;2023-05-07T04:04:10;52.67;49.15;68.66;;
37163;Laerm;23057;48.554;14.454;2023-05-07T04:06:41;52.90;49.11;66.39;;
37163;Laerm;23057;48.554;14.454;2023-05-07T04:09:12;52.46;49.03;66.53;;
37163;Laerm;23057;48.554;14.454;2023-05-07T04:11:42;51.57;48.95;67.74;;
37163;Laerm;23057;48.554;14.454;2023-05-07T04:14:13;50.76;48.78;67.76;;
37163;Laerm;23057;48.554;14.454;2023-05-07T04:16:44;52.85;48.95;61.49;;
37163;Laerm;23057;48.554;14.454;2023-05-07T04:19:15;52.10;49.30;62.22;;
37163;Laerm;23057;48.554;14.454;2023-05-07T04:21:45;51.00;49.38;54.08;;
37163;Laerm;23057;48.554;14.454;2023-05-07T04:24:16;51.31;49.16;55.55;;
37163;Laerm;23057;48.554;14.454;2023-05-07T04:26:47;51.51;49.08;56.21;;
37163;Laerm;23057;48.554;14.454;2023-05-07T04:29:18;52.46;49.23;56.34;;
37163;Laerm;23057;48.554;14.454;2023-05-07T04:31:49;54.45;49.43;60.48;;
37163;Laerm;23057;48.554;14.454;2023-05-07T04:34:19;54.33;49.02;60.13;;
37163;Laerm;23057;48.554;14.454;2023-05-07T04:36:51;49.98;48.91;52.83;;
37163;Laerm;23057;48.554;14.454;2023-05-07T04:39:22;50.04;49.00;55.19;;
37163;Laerm;23057;48.554;14.454;2023-05-07T04:41:53;52.82;49.08;59.39;;
37163;Laerm;23057;48.554;14.454;2023-05-07T04:44:23;55.74;48.80;60.42;;
37163;Laerm;23057;48.554;14.454;2023-05-07T04:46:55;59.66;52.10;62.44;;
37163;Laerm;23057;48.554;14.454;2023-05-07T04:49:26;59.67;49.34;61.22;;
37163;Laerm;23057;48.554;14.454;2023-05-07T04:51:57;60.16;51.46;61.43;;
37163;Laerm;23057;48.554;14.454;2023-05-07T04:54:27;59.25;49.12;61.44;;
37163;Laerm;23057;48.554;14.454;2023-05-07T04:56:58;60.04;51.47;62.59;;
37163;Laerm;23057;48.554;14.454;2023-05-07T04:59:29;59.81;53.44;61.70;;
37163;Laerm;23057;48.554;14.454;2023-05-07T05:01:59;59.31;52.92;61.23;;
37163;Laerm;23057;48.554;14.454;2023-05-07T05:04:30;59.54;52.50;61.28;;
37163;Laerm;23057;48.554;14.454;2023-05-07T05:07:01;59.52;50.03;61.53;;
37163;Laerm;23057;48.554;14.454;2023-05-07T05:09:33;60.27;50.13;63.53;;
37163;Laerm;23057;48.554;14.454;2023-05-07T05:12:04;60.84;56.04;67.42;;
37163;Laerm;23057;48.554;14.454;2023-05-07T05:14:37;59.23;50.19;65.82;;
37163;Laerm;23057;48.554;14.454;2023-05-07T05:17:08;52.51;50.29;55.18;;
37163;Laerm;23057;48.554;14.454;2023-05-07T05:19:39;52.17;49.97;65.49;;
37163;Laerm;23057;48.554;14.454;2023-05-07T05:22:09;55.99;49.98;72.97;;
37163;Laerm;23057;48.554;14.454;2023-05-07T05:24:40;57.39;49.47;68.06;;
37163;Laerm;23057;48.554;14.454;2023-05-07T05:27:11;61.19;49.14;71.98;;
37163;Laerm;23057;48.554;14.454;2023-05-07T05:29:41;51.38;49.25;63.63;;
37163;Laerm;23057;48.554;14.454;2023-05-07T05:32:12;57.69;49.28;67.64;;
37163;Laerm;23057;48.554;14.454;2023-05-07T05:34:46;53.00;49.32;60.24;;
37163;Laerm;23057;48.554;14.454;2023-05-07T05:37:16;51.47;49.51;54.16;;
37163;Laerm;23057;48.554;14.454;2023-05-07T05:39:47;51.38;49.40;60.31;;
37163;Laerm;23057;48.554;14.454;2023-05-07T05:42:18;52.66;49.57;57.53;;
37163;Laerm;23057;48.554;14.454;2023-05-07T05:44:49;53.55;50.68;56.40;;
37163;Laerm;23057;48.554;14.454;2023-05-07T05:47:19;53.26;50.29;57.76;;
37163;Laerm;23057;48.554;14.454;2023-05-07T05:49:50;52.82;49.59;57.54;;
37163;Laerm;23057;48.554;14.454;2023-05-07T05:52:21;55.40;49.66;68.14;;
37163;Laerm;23057;48.554;14.454;2023-05-07T05:54:54;60.95;52.03;72.66;;
37163;Laerm;23057;48.554;14.454;2023-05-07T05:57:25;63.90;49.85;81.70;;
37163;Laerm;23057;48.554;14.454;2023-05-07T05:59:56;60.87;49.71;77.75;;
37163;Laerm;23057;48.554;14.454;2023-05-07T06:02:27;61.07;50.12;70.67;;
37163;Laerm;23057;48.554;14.454;2023-05-07T06:04:57;64.77;50.33;75.35;;
37163;Laerm;23057;48.554;14.454;2023-05-07T06:07:28;53.64;49.56;76.27;;
37163;Laerm;23057;48.554;14.454;2023-05-07T06:09:59;55.20;50.53;59.90;;
37163;Laerm;23057;48.554;14.454;2023-05-07T06:12:29;55.64;50.96;77.13;;
37163;Laerm;23057;48.554;14.454;2023-05-07T06:15:00;62.77;52.04;84.58;;
37163;Laerm;23057;48.554;14.454;2023-05-07T06:17:31;69.09;49.72;81.30;;
37163;Laerm;23057;48.554;14.454;2023-05-07T06:20:03;71.37;49.27;79.01;;
37163;Laerm;23057;48.554;14.454;2023-05-07T06:22:34;72.16;48.81;79.43;;
37163;Laerm;23057;48.554;14.454;2023-05-07T06:25:05;58.16;50.31;79.14;;
37163;Laerm;23057;48.554;14.454;2023-05-07T06:27:36;58.41;51.41;75.67;;
37163;Laerm;23057;48.554;14.454;2023-05-07T06:30:08;63.55;49.58;78.34;;
37163;Laerm;23057;48.554;14.454;2023-05-07T06:32:40;52.71;49.50;70.08;;
37163;Laerm;23057;48.554;14.454;2023-05-07T06:35:11;66.18;49.20;94.50;;
37163;Laerm;23057;48.554;14.454;2023-05-07T06:37:42;65.87;50.06;91.95;;
37163;Laerm;23057;48.554;14.454;2023-05-07T06:40:13;52.86;49.77;71.55;;
37163;Laerm;23057;48.554;14.454;2023-05-07T06:42:43;52.51;49.81;68.38;;
37163;Laerm;23057;48.554;14.454;2023-05-07T06:45:14;60.36;50.33;71.51;;
37163;Laerm;23057;48.554;14.454;2023-05-07T06:47:45;55.58;51.36;68.34;;
37163;Laerm;23057;48.554;14.454;2023-05-07T06:50:18;59.15;51.08;73.08;;
37163;Laerm;23057;48.554;14.454;2023-05-07T06:52:49;59.82;51.11;81.53;;
37163;Laerm;23057;48.554;14.454;2023-05-07T06:55:19;55.04;51.46;76.23;;
37163;Laerm;23057;48.554;14.454;2023-05-07T06:57:50;54.96;51.21;71.62;;
37163;Laerm;23057;48.554;14.454;2023-05-07T07:00:21;54.96;51.84;75.94;;
37163;Laerm;23057;48.554;14.454;2023-05-07T07:02:54;54.94;51.06;77.49;;
37163;Laerm;23057;48.554;14.454;2023-05-07T07:05:25;54.40;51.17;75.41;;
37163;Laerm;23057;48.554;14.454;2023-05-07T07:07:55;56.63;50.55;79.84;;
37163;Laerm;23057;48.554;14.454;2023-05-07T07:10:26;58.31;50.66;79.07;;
37163;Laerm;23057;48.554;14.454;2023-05-07T07:12:57;58.42;50.56;79.14;;
37163;Laerm;23057;48.554;14.454;2023-05-07T07:15:28;54.73;50.02;76.01;;
37163;Laerm;23057;48.554;14.454;2023-05-07T07:17:58;55.15;49.95;77.20;;
37163;Laerm;23057;48.554;14.454;2023-05-07T07:20:29;52.27;50.03;74.33;;
37163;Laerm;23057;48.554;14.454;2023-05-07T07:23:00;55.88;50.05;74.31;;
37163;Laerm;23057;48.554;14.454;2023-05-07T07:25:31;65.36;57.27;67.83;;
37163;Laerm;23057;48.554;14.454;2023-05-07T07:28:02;62.04;51.59;65.69;;
37163;Laerm;23057;48.554;14.454;2023-05-07T07:30:33;62.77;51.53;84.75;;
37163;Laerm;23057;48.554;14.454;2023-05-07T07:33:04;63.62;52.31;76.17;;
37163;Laerm;23057;48.554;14.454;2023-05-07T07:35:35;65.45;56.90;70.19;;
37163;Laerm;23057;48.554;14.454;2023-05-07T07:38:06;65.32;56.90;68.41;;
37163;Laerm;23057;48.554;14.454;2023-05-07T07:40:37;64.52;57.25;68.67;;
37163;Laerm;23057;48.554;14.454;2023-05-07T07:43:07;65.71;58.46;69.73;;
37163;Laerm;23057;48.554;14.454;2023-05-07T07:45:38;60.24;57.98;64.22;;
37163;Laerm;23057;48.554;14.454;2023-05-07T07:48:10;66.19;57.93;70.13;;
37163;Laerm;23057;48.554;14.454;2023-05-07T07:50:40;64.47;58.06;69.70;;
37163;Laerm;23057;48.554;14.454;2023-05-07T07:53:11;65.91;58.74;69.98;;
37163;Laerm;23057;48.554;14.454;2023-05-07T07:55:42;65.53;58.12;69.52;;
37163;Laerm;23057;48.554;14.454;2023-05-07T07:58:13;65.98;57.65;69.10;;
37163;Laerm;23057;48.554;14.454;2023-05-07T08:00:44;59.64;55.12;68.09;;
37163;Laerm;23057;48.554;14.454;2023-05-07T08:03:14;65.85;56.60;67.83;;
37163;Laerm;23057;48.554;14.454;2023-05-07T08:05:47;65.68;56.18;67.19;;
37163;Laerm;23057;48.554;14.454;2023-05-07T08:08:17;63.48;55.71;67.20;;
37163;Laerm;23057;48.554;14.454;2023-05-07T08:10:48;65.02;55.75;66.83;;
37163;Laerm;23057;48.554;14.454;2023-05-07T08:13:20;62.71;54.31;66.25;;
37163;Laerm;23057;48.554;14.454;2023-05-07T08:15:51;63.50;53.67;66.33;;
37163;Laerm;23057;48.554;14.454;2023-05-07T08:18:23;63.26;55.31;66.13;;
37163;Laerm;23057;48.554;14.454;2023-05-07T08:20:55;64.29;54.82;65.85;;
37163;Laerm;23057;48.554;14.454;2023-05-07T08:23:26;62.82;55.21;65.68;;
37163;Laerm;23057;48.554;14.454;2023-05-07T08:25:56;64.88;56.19;66.16;;
37163;Laerm;23057;48.554;14.454;2023-05-07T08:28:27;64.75;55.41;65.92;;
37163;Laerm;23057;48.554;14.454;2023-05-07T08:30:58;64.79;54.62;66.51;;
37163;Laerm;23057;48.554;14.454;2023-05-07T08:33:31;63.85;53.90;65.58;;
37163;Laerm;23057;48.554;14.454;2023-05-07T08:36:02;62.75;55.00;65.72;;
37163;Laerm;23057;48.554;14.454;2023-05-07T08:38:32;62.49;53.79;65.05;;
37163;Laerm;23057;48.554;14.454;2023-05-07T08:41:03;61.33;53.66;64.72;;
37163;Laerm;23057;48.554;14.454;2023-05-07T08:43:37;63.63;62.56;64.51;;
37163;Laerm;23057;48.554;14.454;2023-05-07T08:46:19;63.25;61.92;64.39;;
37163;Laerm;23057;48.554;14.454;2023-05-07T08:48:51;62.56;59.96;65.12;;
37163;Laerm;23057;48.554;14.454;2023-05-07T08:51:22;63.87;54.95;70.63;;
37163;Laerm;23057;48.554;14.454;2023-05-07T08:53:53;63.84;56.16;67.25;;
37163;Laerm;23057;48.554;14.454;2023-05-07T08:56:23;63.54;60.20;67.14;;
37163;Laerm;23057;48.554;14.454;2023-05-07T08:58:55;64.06;60.33;67.13;;
37163;Laerm;23057;48.554;14.454;2023-05-07T09:01:29;66.39;61.19;69.29;;
37163;Laerm;23057;48.554;14.454;2023-05-07T09:03:59;65.02;61.41;67.92;;
37163;Laerm;23057;48.554;14.454;2023-05-07T09:06:30;64.11;60.15;66.58;;
37163;Laerm;23057;48.554;14.454;2023-05-07T09:09:01;62.25;58.43;64.98;;
37163;Laerm;23057;48.554;14.454;2023-05-07T09:11:35;62.24;57.30;66.59;;
37163;Laerm;23057;48.554;14.454;2023-05-07T09:14:06;62.13;55.97;65.95;;
37163;Laerm;23057;48.554;14.454;2023-05-07T09:16:37;63.36;57.49;67.64;;
37163;Laerm;23057;48.554;14.454;2023-05-07T09:19:07;62.46;57.09;65.69;;
37163;Laerm;23057;48.554;14.454;2023-05-07T09:21:38;63.01;58.72;66.02;;
37163;Laerm;23057;48.554;14.454;2023-05-07T09:24:10;63.11;58.20;66.51;;
37163;Laerm;23057;48.554;14.454;2023-05-07T09:26:41;63.01;59.07;66.23;;
37163;Laerm;23057;48.554;14.454;2023-05-07T09:29:11;63.38;59.51;66.19;;
37163;Laerm;23057;48.554;14.454;2023-05-07T09:31:42;64.29;59.64;67.40;;
37163;Laerm;23057;48.554;14.454;2023-05-07T09:34:13;64.39;60.67;67.01;;
37163;Laerm;23057;48.554;14.454;2023-05-07T09:36:44;64.24;60.67;66.67;;
37163;Laerm;23057;48.554;14.454;2023-05-07T09:39:15;64.45;60.53;67.08;;
37163;Laerm;23057;48.554;14.454;2023-05-07T09:41:47;64.13;59.95;66.63;;
37163;Laerm;23057;48.554;14.454;2023-05-07T09:44:21;63.13;59.31;65.86;;
37163;Laerm;23057;48.554;14.454;2023-05-07T09:46:54;63.21;58.87;66.26;;
37163;Laerm;23057;48.554;14.454;2023-05-07T09:49:29;63.64;57.81;67.49;;
37163;Laerm;23057;48.554;14.454;2023-05-07T09:52:02;63.96;56.87;68.30;;
37163;Laerm;23057;48.554;14.454;2023-05-07T09:54:36;63.04;58.41;66.96;;
37163;Laerm;23057;48.554;14.454;2023-05-07T09:57:11;62.80;57.62;67.73;;
37163;Laerm;23057;48.554;14.454;2023-05-07T09:59:46;63.52;57.95;68.01;;
37163;Laerm;23057;48.554;14.454;2023-05-07T10:02:19;63.43;59.20;66.31;;
37163;Laerm;23057;48.554;14.454;2023-05-07T10:04:50;63.79;60.49;66.27;;
37163;Laerm;23057;48.554;14.454;2023-05-07T10:07:22;64.47;61.12;66.96;;
37163;Laerm;23057;48.554;14.454;2023-05-07T10:09:55;64.06;60.78;66.82;;
37163;Laerm;23057;48.554;14.454;2023-05-07T10:12:27;63.87;60.09;66.23;;
37163;Laerm;23057;48.554;14.454;2023-05-07T10:14:58;63.81;59.45;66.60;;
37163;Laerm;23057;48.554;14.454;2023-05-07T10:17:29;63.70;60.13;66.13;;
37163;Laerm;23057;48.554;14.454;2023-05-07T10:20:01;64.05;59.81;66.29;;
37163;Laerm;23057;48.554;14.454;2023-05-07T10:22:38;64.27;61.08;66.66;;
37163;Laerm;23057;48.554;14.454;2023-05-07T10:25:37;64.40;60.78;66.68;;
37163;Laerm;23057;48.554;14.454;2023-05-07T10:28:10;63.50;59.35;66.28;;
37163;Laerm;23057;48.554;14.454;2023-05-07T10:31:09;63.38;59.35;65.48;;
37163;Laerm;23057;48.554;14.454;2023-05-07T10:33:45;63.45;59.69;66.13;;
37163;Laerm;23057;48.554;14.454;2023-05-07T10:36:17;63.69;58.99;67.79;;
37163;Laerm;23057;48.554;14.454;2023-05-07T10:38:49;63.57;57.13;66.29;;
37163;Laerm;23057;48.554;14.454;2023-05-07T10:41:20;65.02;60.62;68.90;;
37163;Laerm;23057;48.554;14.454;2023-05-07T10:43:52;63.12;59.42;65.70;;
37163;Laerm;23057;48.554;14.454;2023-05-07T10:46:23;62.82;58.12;65.19;;
37163;Laerm;23057;48.554;14.454;2023-05-07T10:51:35;63.50;59.27;66.18;;
37163;Laerm;23057;48.554;14.454;2023-05-07T10:56:43;63.57;59.26;66.71;;
37163;Laerm;23057;48.554;14.454;2023-05-07T11:02:02;63.51;59.32;66.63;;
37163;Laerm;23057;48.554;14.454;2023-05-07T11:04:34;63.53;60.44;66.02;;
37163;Laerm;23057;48.554;14.454;2023-05-07T11:10:01;63.36;60.34;66.44;;
37163;Laerm;23057;48.554;14.454;2023-05-07T11:15:55;63.29;58.07;66.06;;
37163;Laerm;23057;48.554;14.454;2023-05-07T11:18:47;63.29;57.74;66.91;;
37163;Laerm;23057;48.554;14.454;2023-05-07T11:21:38;63.05;59.46;66.12;;
37163;Laerm;23057;48.554;14.454;2023-05-07T11:24:10;63.27;60.33;65.94;;
37163;Laerm;23057;48.554;14.454;2023-05-07T11:26:50;62.78;59.13;65.63;;
37163;Laerm;23057;48.554;14.454;2023-05-07T11:29:21;62.29;58.34;65.89;;
37163;Laerm;23057;48.554;14.454;2023-05-07T11:31:54;62.34;55.07;65.62;;
37163;Laerm;23057;48.554;14.454;2023-05-07T11:34:26;62.75;58.58;65.97;;
37163;Laerm;23057;48.554;14.454;2023-05-07T11:36:58;63.34;57.32;66.47;;
37163;Laerm;23057;48.554;14.454;2023-05-07T11:39:32;63.36;57.32;66.29;;
37163;Laerm;23057;48.554;14.454;2023-05-07T11:42:06;63.18;58.63;65.83;;
37163;Laerm;23057;48.554;14.454;2023-05-07T11:44:44;62.31;57.73;65.60;;
37163;Laerm;23057;48.554;14.454;2023-05-07T11:47:20;62.31;57.28;65.43;;
37163;Laerm;23057;48.554;14.454;2023-05-07T11:49:53;62.85;57.79;66.13;;
37163;Laerm;23057;48.554;14.454;2023-05-07T11:52:24;62.87;58.19;65.59;;
37163;Laerm;23057;48.554;14.454;2023-05-07T11:54:58;62.84;57.13;66.38;;
37163;Laerm;23057;48.554;14.454;2023-05-07T11:57:32;62.54;56.18;66.45;;
37163;Laerm;23057;48.554;14.454;2023-05-07T12:00:04;62.95;57.41;66.78;;
37163;Laerm;23057;48.554;14.454;2023-05-07T12:02:35;62.19;57.27;66.25;;
37163;Laerm;23057;48.554;14.454;2023-05-07T12:05:06;62.36;56.63;65.76;;
37163;Laerm;23057;48.554;14.454;2023-05-07T12:07:37;62.69;57.50;65.81;;
37163;Laerm;23057;48.554;14.454;2023-05-07T12:10:11;62.08;55.67;66.43;;
37163;Laerm;23057;48.554;14.454;2023-05-07T12:12:46;62.70;52.67;75.75;;
37163;Laerm;23057;48.554;14.454;2023-05-07T12:15:17;59.92;50.88;65.42;;
37163;Laerm;23057;48.554;14.454;2023-05-07T12:17:48;59.34;51.91;63.76;;
37163;Laerm;23057;48.554;14.454;2023-05-07T12:20:19;59.39;51.19;64.01;;
37163;Laerm;23057;48.554;14.454;2023-05-07T12:22:51;58.97;50.22;65.30;;
37163;Laerm;23057;48.554;14.454;2023-05-07T12:25:22;59.66;50.68;64.34;;
37163;Laerm;23057;48.554;14.454;2023-05-07T12:27:53;59.39;51.41;63.75;;
37163;Laerm;23057;48.554;14.454;2023-05-07T12:30:25;59.32;52.38;64.93;;
37163;Laerm;23057;48.554;14.454;2023-05-07T12:32:55;57.93;50.11;63.14;;
37163;Laerm;23057;48.554;14.454;2023-05-07T12:35:31;59.19;50.12;64.32;;
37163;Laerm;23057;48.554;14.454;2023-05-07T12:38:02;59.50;50.40;64.50;;
37163;Laerm;23057;48.554;14.454;2023-05-07T12:43:15;59.51;50.11;66.67;;
37163;Laerm;23057;48.554;14.454;2023-05-07T12:45:49;58.62;49.97;65.05;;
37163;Laerm;23057;48.554;14.454;2023-05-07T12:48:21;59.47;50.31;66.57;;
37163;Laerm;23057;48.554;14.454;2023-05-07T12:50:58;58.57;49.85;65.89;;
37163;Laerm;23057;48.554;14.454;2023-05-07T12:53:30;58.81;50.86;63.87;;
37163;Laerm;23057;48.554;14.454;2023-05-07T12:56:01;58.78;50.26;66.56;;
37163;Laerm;23057;48.554;14.454;2023-05-07T12:58:35;57.80;50.27;62.45;;
37163;Laerm;23057;48.554;14.454;2023-05-07T13:01:08;59.11;51.87;63.63;;
37163;Laerm;23057;48.554;14.454;2023-05-07T13:03:40;59.15;50.50;63.23;;
37163;Laerm;23057;48.554;14.454;2023-05-07T13:06:10;59.12;50.32;65.53;;
37163;Laerm;23057;48.554;14.454;2023-05-07T13:08:42;59.08;50.17;66.32;;
37163;Laerm;23057;48.554;14.454;2023-05-07T13:11:13;58.64;49.84;62.83;;
37163;Laerm;23057;48.554;14.454;2023-05-07T13:13:44;58.93;50.37;66.03;;
37163;Laerm;23057;48.554;14.454;2023-05-07T13:16:15;59.52;50.34;63.93;;
37163;Laerm;23057;48.554;14.454;2023-05-07T13:18:46;59.94;50.48;64.30;;
37163;Laerm;23057;48.554;14.454;2023-05-07T13:21:16;59.57;51.87;63.74;;
37163;Laerm;23057;48.554;14.454;2023-05-07T13:23:47;59.87;49.94;64.55;;
37163;Laerm;23057;48.554;14.454;2023-05-07T13:26:18;59.65;51.30;64.91;;
37163;Laerm;23057;48.554;14.454;2023-05-07T13:28:49;59.67;51.03;66.37;;
37163;Laerm;23057;48.554;14.454;2023-05-07T13:31:19;59.27;51.23;63.14;;
37163;Laerm;23057;48.554;14.454;2023-05-07T13:33:51;59.17;51.32;63.32;;
37163;Laerm;23057;48.554;14.454;2023-05-07T13:36:23;59.16;50.58;63.15;;
37163;Laerm;23057;48.554;14.454;2023-05-07T13:38:53;59.29;50.19;65.94;;
37163;Laerm;23057;48.554;14.454;2023-05-07T13:41:24;59.17;51.77;63.44;;
37163;Laerm;23057;48.554;14.454;2023-05-07T13:43:55;59.49;51.05;64.80;;
37163;Laerm;23057;48.554;14.454;2023-05-07T13:46:26;59.36;51.02;65.29;;
37163;Laerm;23057;48.554;14.454;2023-05-07T13:48:57;59.76;51.30;65.29;;
37163;Laerm;23057;48.554;14.454;2023-05-07T13:51:28;59.52;50.51;64.14;;
37163;Laerm;23057;48.554;14.454;2023-05-07T13:53:58;60.22;52.51;64.60;;
37163;Laerm;23057;48.554;14.454;2023-05-07T13:56:30;59.70;50.74;65.56;;
37163;Laerm;23057;48.554;14.454;2023-05-07T13:59:02;60.16;50.66;64.50;;
37163;Laerm;23057;48.554;14.454;2023-05-07T14:01:33;59.85;52.56;64.60;;
37163;Laerm;23057;48.554;14.454;2023-05-07T14:04:04;59.44;51.79;63.85;;
37163;Laerm;23057;48.554;14.454;2023-05-07T14:06:35;59.96;50.86;64.64;;
37163;Laerm;23057;48.554;14.454;2023-05-07T14:09:05;67.18;53.13;73.70;;
37163;Laerm;23057;48.554;14.454;2023-05-07T14:11:36;66.74;58.31;78.77;;
37163;Laerm;23057;48.554;14.454;2023-05-07T14:14:07;64.53;57.93;73.86;;
37163;Laerm;23057;48.554;14.454;2023-05-07T14:16:38;64.48;58.23;67.60;;